sensor_id;sensor_type;location;lat;lon;timestamp;P1;durP1;ratioP1;P2;durP2;ratioP2
22677;SDS011;26259;50.214;18.620;2023-01-15T00:00:50;4.87;;;2.47;;
22677;SDS011;26259;50.214;18.620;2023-01-15T00:03:16;3.87;;;2.30;;
22677;SDS011;26259;50.214;18.620;2023-01-15T00:05:42;6.13;;;2.30;;
22677;SDS011;26259;50.214;18.620;2023-01-15T00:08:08;10.20;;;3.30;;
22677;SDS011;26259;50.214;18.620;2023-01-15T00:10:34;5.37;;;2.40;;
22677;SDS011;26259;50.214;18.620;2023-01-15T00:13:00;5.10;;;2.87;;
22677;SDS011;26259;50.214;18.620;2023-01-15T00:15:26;7.20;;;2.50;;
22677;SDS011;26259;50.214;18.620;2023-01-15T00:17:51;6.07;;;2.70;;
22677;SDS011;26259;50.214;18.620;2023-01-15T00:20:17;6.37;;;2.83;;
22677;SDS011;26259;50.214;18.620;2023-01-15T00:22:42;5.13;;;2.40;;
22677;SDS011;26259;50.214;18.620;2023-01-15T00:25:08;8.17;;;2.87;;
22677;SDS011;26259;50.214;18.620;2023-01-15T00:27:54;7.10;;;2.70;;
22677;SDS011;26259;50.214;18.620;2023-01-15T00:30:19;7.27;;;2.93;;
22677;SDS011;26259;50.214;18.620;2023-01-15T00:32:45;8.77;;;3.23;;
22677;SDS011;26259;50.214;18.620;2023-01-15T00:35:12;9.07;;;3.50;;
22677;SDS011;26259;50.214;18.620;2023-01-15T00:37:40;6.83;;;3.57;;
22677;SDS011;26259;50.214;18.620;2023-01-15T00:40:06;5.60;;;2.20;;
22677;SDS011;26259;50.214;18.620;2023-01-15T00:42:32;5.53;;;2.67;;
22677;SDS011;26259;50.214;18.620;2023-01-15T00:44:58;5.73;;;2.67;;
22677;SDS011;26259;50.214;18.620;2023-01-15T00:47:29;4.63;;;3.03;;
22677;SDS011;26259;50.214;18.620;2023-01-15T00:49:55;9.90;;;4.07;;
22677;SDS011;26259;50.214;18.620;2023-01-15T00:52:20;4.87;;;2.60;;
22677;SDS011;26259;50.214;18.620;2023-01-15T00:54:46;5.50;;;2.40;;
22677;SDS011;26259;50.214;18.620;2023-01-15T00:57:12;4.80;;;2.47;;
22677;SDS011;26259;50.214;18.620;2023-01-15T00:59:37;3.37;;;2.37;;
22677;SDS011;26259;50.214;18.620;2023-01-15T01:02:03;4.33;;;2.70;;
22677;SDS011;26259;50.214;18.620;2023-01-15T01:04:29;4.77;;;2.47;;
22677;SDS011;26259;50.214;18.620;2023-01-15T01:06:54;4.27;;;2.73;;
22677;SDS011;26259;50.214;18.620;2023-01-15T01:09:20;5.03;;;2.87;;
22677;SDS011;26259;50.214;18.620;2023-01-15T01:11:47;6.37;;;3.20;;
22677;SDS011;26259;50.214;18.620;2023-01-15T01:14:13;4.47;;;2.53;;
22677;SDS011;26259;50.214;18.620;2023-01-15T01:16:39;5.07;;;2.83;;
22677;SDS011;26259;50.214;18.620;2023-01-15T01:19:16;4.80;;;2.77;;
22677;SDS011;26259;50.214;18.620;2023-01-15T01:21:44;4.50;;;2.67;;
22677;SDS011;26259;50.214;18.620;2023-01-15T01:24:11;5.17;;;2.73;;
22677;SDS011;26259;50.214;18.620;2023-01-15T01:26:39;4.97;;;2.90;;
22677;SDS011;26259;50.214;18.620;2023-01-15T01:29:05;3.93;;;2.63;;
22677;SDS011;26259;50.214;18.620;2023-01-15T01:31:30;3.70;;;2.30;;
22677;SDS011;26259;50.214;18.620;2023-01-15T01:33:57;5.83;;;2.60;;
22677;SDS011;26259;50.214;18.620;2023-01-15T01:36:31;5.23;;;2.60;;
22677;SDS011;26259;50.214;18.620;2023-01-15T01:38:59;6.87;;;2.70;;
22677;SDS011;26259;50.214;18.620;2023-01-15T01:41:25;4.47;;;2.70;;
22677;SDS011;26259;50.214;18.620;2023-01-15T01:46:52;5.37;;;2.90;;
22677;SDS011;26259;50.214;18.620;2023-01-15T01:49:17;4.33;;;3.20;;
22677;SDS011;26259;50.214;18.620;2023-01-15T01:51:45;5.60;;;3.57;;
22677;SDS011;26259;50.214;18.620;2023-01-15T01:54:15;7.27;;;3.27;;
22677;SDS011;26259;50.214;18.620;2023-01-15T01:56:43;4.50;;;3.10;;
22677;SDS011;26259;50.214;18.620;2023-01-15T01:59:09;6.20;;;3.50;;
22677;SDS011;26259;50.214;18.620;2023-01-15T02:01:36;4.03;;;2.90;;
22677;SDS011;26259;50.214;18.620;2023-01-15T02:04:02;5.73;;;3.20;;
22677;SDS011;26259;50.214;18.620;2023-01-15T02:06:31;6.50;;;3.30;;
22677;SDS011;26259;50.214;18.620;2023-01-15T02:08:58;4.43;;;2.67;;
22677;SDS011;26259;50.214;18.620;2023-01-15T02:11:23;4.87;;;3.03;;
22677;SDS011;26259;50.214;18.620;2023-01-15T02:13:52;6.50;;;2.97;;
22677;SDS011;26259;50.214;18.620;2023-01-15T02:16:34;5.27;;;3.10;;
22677;SDS011;26259;50.214;18.620;2023-01-15T02:27:01;5.53;;;3.03;;
22677;SDS011;26259;50.214;18.620;2023-01-15T02:29:47;5.33;;;2.80;;
22677;SDS011;26259;50.214;18.620;2023-01-15T02:32:28;5.50;;;3.03;;
22677;SDS011;26259;50.214;18.620;2023-01-15T02:35:23;5.10;;;3.37;;
22677;SDS011;26259;50.214;18.620;2023-01-15T02:37:54;4.00;;;2.43;;
22677;SDS011;26259;50.214;18.620;2023-01-15T02:40:26;5.90;;;2.83;;
22677;SDS011;26259;50.214;18.620;2023-01-15T02:42:53;6.63;;;4.57;;
22677;SDS011;26259;50.214;18.620;2023-01-15T02:45:21;6.87;;;4.73;;
22677;SDS011;26259;50.214;18.620;2023-01-15T02:47:51;4.37;;;3.07;;
22677;SDS011;26259;50.214;18.620;2023-01-15T02:50:21;4.57;;;3.60;;
22677;SDS011;26259;50.214;18.620;2023-01-15T02:52:51;8.07;;;3.80;;
22677;SDS011;26259;50.214;18.620;2023-01-15T02:55:24;3.57;;;2.37;;
22677;SDS011;26259;50.214;18.620;2023-01-15T02:57:55;3.43;;;2.77;;
22677;SDS011;26259;50.214;18.620;2023-01-15T03:00:25;4.47;;;2.33;;
22677;SDS011;26259;50.214;18.620;2023-01-15T03:03:08;3.20;;;2.40;;
22677;SDS011;26259;50.214;18.620;2023-01-15T03:05:56;8.03;;;2.47;;
22677;SDS011;26259;50.214;18.620;2023-01-15T03:08:26;4.33;;;2.00;;
22677;SDS011;26259;50.214;18.620;2023-01-15T03:11:02;2.83;;;1.83;;
22677;SDS011;26259;50.214;18.620;2023-01-15T03:16:17;3.50;;;2.03;;
22677;SDS011;26259;50.214;18.620;2023-01-15T03:19:13;7.70;;;2.20;;
22677;SDS011;26259;50.214;18.620;2023-01-15T03:27:00;3.50;;;2.80;;
22677;SDS011;26259;50.214;18.620;2023-01-15T03:29:27;4.23;;;2.77;;
22677;SDS011;26259;50.214;18.620;2023-01-15T03:31:55;5.03;;;3.63;;
22677;SDS011;26259;50.214;18.620;2023-01-15T03:34:22;3.33;;;2.17;;
22677;SDS011;26259;50.214;18.620;2023-01-15T03:36:50;2.33;;;1.93;;
22677;SDS011;26259;50.214;18.620;2023-01-15T03:39:16;3.37;;;2.03;;
22677;SDS011;26259;50.214;18.620;2023-01-15T03:41:48;2.83;;;1.90;;
22677;SDS011;26259;50.214;18.620;2023-01-15T03:44:30;3.90;;;2.20;;
22677;SDS011;26259;50.214;18.620;2023-01-15T03:49:58;4.03;;;2.57;;
22677;SDS011;26259;50.214;18.620;2023-01-15T03:55:21;3.23;;;2.10;;
22677;SDS011;26259;50.214;18.620;2023-01-15T03:57:50;2.10;;;1.60;;
22677;SDS011;26259;50.214;18.620;2023-01-15T04:00:33;2.50;;;1.80;;
22677;SDS011;26259;50.214;18.620;2023-01-15T04:03:02;4.30;;;2.33;;
22677;SDS011;26259;50.214;18.620;2023-01-15T04:05:30;1.90;;;1.50;;
22677;SDS011;26259;50.214;18.620;2023-01-15T04:07:57;3.73;;;1.80;;
22677;SDS011;26259;50.214;18.620;2023-01-15T04:10:24;2.30;;;1.77;;
22677;SDS011;26259;50.214;18.620;2023-01-15T04:12:50;2.90;;;2.30;;
22677;SDS011;26259;50.214;18.620;2023-01-15T04:15:15;2.17;;;1.77;;
22677;SDS011;26259;50.214;18.620;2023-01-15T04:17:41;2.93;;;1.93;;
22677;SDS011;26259;50.214;18.620;2023-01-15T04:20:07;2.73;;;1.50;;
22677;SDS011;26259;50.214;18.620;2023-01-15T04:22:34;2.60;;;2.13;;
22677;SDS011;26259;50.214;18.620;2023-01-15T04:25:00;3.30;;;1.73;;
22677;SDS011;26259;50.214;18.620;2023-01-15T04:27:26;5.33;;;2.10;;
22677;SDS011;26259;50.214;18.620;2023-01-15T04:29:52;4.70;;;1.77;;
22677;SDS011;26259;50.214;18.620;2023-01-15T04:32:18;2.43;;;1.60;;
22677;SDS011;26259;50.214;18.620;2023-01-15T04:34:43;4.17;;;1.70;;
22677;SDS011;26259;50.214;18.620;2023-01-15T04:37:09;2.60;;;1.80;;
22677;SDS011;26259;50.214;18.620;2023-01-15T04:39:34;2.13;;;1.70;;
22677;SDS011;26259;50.214;18.620;2023-01-15T04:42:00;2.57;;;1.80;;
22677;SDS011;26259;50.214;18.620;2023-01-15T04:44:44;2.87;;;2.10;;
22677;SDS011;26259;50.214;18.620;2023-01-15T04:47:10;3.40;;;2.40;;
22677;SDS011;26259;50.214;18.620;2023-01-15T04:49:36;3.33;;;2.50;;
22677;SDS011;26259;50.214;18.620;2023-01-15T04:52:01;2.83;;;1.70;;
22677;SDS011;26259;50.214;18.620;2023-01-15T04:54:27;3.13;;;2.60;;
22677;SDS011;26259;50.214;18.620;2023-01-15T04:56:53;2.27;;;2.07;;
22677;SDS011;26259;50.214;18.620;2023-01-15T04:59:20;2.77;;;1.97;;
22677;SDS011;26259;50.214;18.620;2023-01-15T05:01:48;3.17;;;1.87;;
22677;SDS011;26259;50.214;18.620;2023-01-15T05:04:14;6.73;;;1.93;;
22677;SDS011;26259;50.214;18.620;2023-01-15T05:06:40;4.00;;;2.40;;
22677;SDS011;26259;50.214;18.620;2023-01-15T05:09:05;9.33;;;3.17;;
22677;SDS011;26259;50.214;18.620;2023-01-15T05:11:35;6.03;;;3.20;;
22677;SDS011;26259;50.214;18.620;2023-01-15T05:14:02;6.93;;;3.10;;
22677;SDS011;26259;50.214;18.620;2023-01-15T05:16:28;5.23;;;2.90;;
22677;SDS011;26259;50.214;18.620;2023-01-15T05:18:56;5.97;;;2.93;;
22677;SDS011;26259;50.214;18.620;2023-01-15T05:21:24;4.33;;;3.17;;
22677;SDS011;26259;50.214;18.620;2023-01-15T05:24:00;4.97;;;3.13;;
22677;SDS011;26259;50.214;18.620;2023-01-15T05:26:28;12.83;;;2.53;;
22677;SDS011;26259;50.214;18.620;2023-01-15T05:28:55;4.03;;;2.00;;
22677;SDS011;26259;50.214;18.620;2023-01-15T05:31:22;4.00;;;2.50;;
22677;SDS011;26259;50.214;18.620;2023-01-15T05:33:49;3.20;;;2.17;;
22677;SDS011;26259;50.214;18.620;2023-01-15T05:36:17;4.90;;;2.47;;
22677;SDS011;26259;50.214;18.620;2023-01-15T05:38:50;6.20;;;3.17;;
22677;SDS011;26259;50.214;18.620;2023-01-15T05:41:18;3.87;;;3.13;;
22677;SDS011;26259;50.214;18.620;2023-01-15T05:44:04;7.60;;;2.93;;
22677;SDS011;26259;50.214;18.620;2023-01-15T05:46:35;7.50;;;3.53;;
22677;SDS011;26259;50.214;18.620;2023-01-15T05:49:04;4.30;;;3.03;;
22677;SDS011;26259;50.214;18.620;2023-01-15T05:51:31;9.27;;;3.27;;
22677;SDS011;26259;50.214;18.620;2023-01-15T05:53:58;8.83;;;2.90;;
22677;SDS011;26259;50.214;18.620;2023-01-15T05:56:24;4.87;;;3.00;;
22677;SDS011;26259;50.214;18.620;2023-01-15T05:58:50;4.87;;;2.83;;
22677;SDS011;26259;50.214;18.620;2023-01-15T06:01:16;6.87;;;4.00;;
22677;SDS011;26259;50.214;18.620;2023-01-15T06:03:42;2.80;;;2.57;;
22677;SDS011;26259;50.214;18.620;2023-01-15T06:06:11;5.70;;;3.20;;
22677;SDS011;26259;50.214;18.620;2023-01-15T06:08:38;6.27;;;3.30;;
22677;SDS011;26259;50.214;18.620;2023-01-15T06:11:04;6.40;;;3.23;;
22677;SDS011;26259;50.214;18.620;2023-01-15T06:13:31;6.77;;;3.27;;
22677;SDS011;26259;50.214;18.620;2023-01-15T06:15:58;5.13;;;3.17;;
22677;SDS011;26259;50.214;18.620;2023-01-15T06:18:24;6.23;;;3.27;;
22677;SDS011;26259;50.214;18.620;2023-01-15T06:20:50;6.17;;;3.53;;
22677;SDS011;26259;50.214;18.620;2023-01-15T06:23:16;8.60;;;4.23;;
22677;SDS011;26259;50.214;18.620;2023-01-15T06:25:42;6.90;;;4.03;;
22677;SDS011;26259;50.214;18.620;2023-01-15T06:28:08;7.20;;;4.37;;
22677;SDS011;26259;50.214;18.620;2023-01-15T06:30:34;8.03;;;3.90;;
22677;SDS011;26259;50.214;18.620;2023-01-15T06:33:01;6.10;;;3.97;;
22677;SDS011;26259;50.214;18.620;2023-01-15T06:35:27;6.17;;;3.80;;
22677;SDS011;26259;50.214;18.620;2023-01-15T06:37:52;6.90;;;5.00;;
22677;SDS011;26259;50.214;18.620;2023-01-15T06:40:18;9.00;;;4.00;;
22677;SDS011;26259;50.214;18.620;2023-01-15T06:42:44;7.53;;;3.73;;
22677;SDS011;26259;50.214;18.620;2023-01-15T06:45:35;7.20;;;3.90;;
22677;SDS011;26259;50.214;18.620;2023-01-15T06:48:21;16.60;;;7.27;;
22677;SDS011;26259;50.214;18.620;2023-01-15T06:50:47;13.07;;;7.60;;
22677;SDS011;26259;50.214;18.620;2023-01-15T06:53:12;8.17;;;4.87;;
22677;SDS011;26259;50.214;18.620;2023-01-15T06:55:38;7.87;;;5.00;;
22677;SDS011;26259;50.214;18.620;2023-01-15T06:58:03;7.27;;;4.73;;
22677;SDS011;26259;50.214;18.620;2023-01-15T07:00:29;8.37;;;4.67;;
22677;SDS011;26259;50.214;18.620;2023-01-15T07:02:58;11.00;;;5.63;;
22677;SDS011;26259;50.214;18.620;2023-01-15T07:05:24;6.20;;;3.83;;
22677;SDS011;26259;50.214;18.620;2023-01-15T07:07:49;8.17;;;4.60;;
22677;SDS011;26259;50.214;18.620;2023-01-15T07:10:15;10.53;;;5.20;;
22677;SDS011;26259;50.214;18.620;2023-01-15T07:12:41;12.13;;;4.83;;
22677;SDS011;26259;50.214;18.620;2023-01-15T07:15:07;13.00;;;4.40;;
22677;SDS011;26259;50.214;18.620;2023-01-15T07:17:32;7.80;;;4.60;;
22677;SDS011;26259;50.214;18.620;2023-01-15T07:19:58;10.53;;;5.30;;
22677;SDS011;26259;50.214;18.620;2023-01-15T07:22:23;9.47;;;5.30;;
22677;SDS011;26259;50.214;18.620;2023-01-15T07:24:49;9.37;;;5.50;;
22677;SDS011;26259;50.214;18.620;2023-01-15T07:27:15;9.47;;;5.37;;
22677;SDS011;26259;50.214;18.620;2023-01-15T07:29:40;9.97;;;5.80;;
22677;SDS011;26259;50.214;18.620;2023-01-15T07:32:06;9.90;;;5.13;;
22677;SDS011;26259;50.214;18.620;2023-01-15T07:34:31;9.50;;;5.97;;
22677;SDS011;26259;50.214;18.620;2023-01-15T07:36:57;9.20;;;5.73;;
22677;SDS011;26259;50.214;18.620;2023-01-15T07:39:23;9.67;;;4.83;;
22677;SDS011;26259;50.214;18.620;2023-01-15T07:41:48;8.87;;;5.33;;
22677;SDS011;26259;50.214;18.620;2023-01-15T07:44:32;10.17;;;4.33;;
22677;SDS011;26259;50.214;18.620;2023-01-15T07:47:21;11.90;;;4.70;;
22677;SDS011;26259;50.214;18.620;2023-01-15T07:50:11;13.37;;;5.57;;
22677;SDS011;26259;50.214;18.620;2023-01-15T07:52:42;13.80;;;6.13;;
22677;SDS011;26259;50.214;18.620;2023-01-15T07:55:08;13.93;;;5.30;;
22677;SDS011;26259;50.214;18.620;2023-01-15T07:57:36;11.77;;;5.73;;
22677;SDS011;26259;50.214;18.620;2023-01-15T08:00:03;12.20;;;5.47;;
22677;SDS011;26259;50.214;18.620;2023-01-15T08:02:29;10.03;;;5.87;;
22677;SDS011;26259;50.214;18.620;2023-01-15T08:04:55;9.67;;;5.30;;
22677;SDS011;26259;50.214;18.620;2023-01-15T08:07:21;16.20;;;6.60;;
22677;SDS011;26259;50.214;18.620;2023-01-15T08:09:46;8.87;;;5.10;;
22677;SDS011;26259;50.214;18.620;2023-01-15T08:12:12;9.10;;;4.67;;
22677;SDS011;26259;50.214;18.620;2023-01-15T08:14:56;12.07;;;5.80;;
22677;SDS011;26259;50.214;18.620;2023-01-15T08:17:37;10.13;;;5.20;;
22677;SDS011;26259;50.214;18.620;2023-01-15T08:20:07;9.27;;;4.97;;
22677;SDS011;26259;50.214;18.620;2023-01-15T08:22:35;9.83;;;4.47;;
22677;SDS011;26259;50.214;18.620;2023-01-15T08:25:02;11.10;;;5.30;;
22677;SDS011;26259;50.214;18.620;2023-01-15T08:27:28;8.53;;;5.37;;
22677;SDS011;26259;50.214;18.620;2023-01-15T08:29:54;8.97;;;4.60;;
22677;SDS011;26259;50.214;18.620;2023-01-15T08:32:20;11.30;;;5.43;;
22677;SDS011;26259;50.214;18.620;2023-01-15T08:34:47;8.63;;;5.10;;
22677;SDS011;26259;50.214;18.620;2023-01-15T08:37:12;10.50;;;5.60;;
22677;SDS011;26259;50.214;18.620;2023-01-15T08:39:38;13.03;;;5.33;;
22677;SDS011;26259;50.214;18.620;2023-01-15T08:42:03;8.43;;;5.00;;
22677;SDS011;26259;50.214;18.620;2023-01-15T08:44:29;8.43;;;5.07;;
22677;SDS011;26259;50.214;18.620;2023-01-15T08:46:54;10.30;;;5.23;;
22677;SDS011;26259;50.214;18.620;2023-01-15T08:49:20;7.77;;;4.33;;
22677;SDS011;26259;50.214;18.620;2023-01-15T08:51:46;7.10;;;4.30;;
22677;SDS011;26259;50.214;18.620;2023-01-15T08:54:15;6.53;;;3.93;;
22677;SDS011;26259;50.214;18.620;2023-01-15T08:56:42;9.03;;;4.33;;
22677;SDS011;26259;50.214;18.620;2023-01-15T08:59:08;9.27;;;4.60;;
22677;SDS011;26259;50.214;18.620;2023-01-15T09:01:34;6.53;;;4.20;;
22677;SDS011;26259;50.214;18.620;2023-01-15T09:04:00;8.40;;;5.00;;
22677;SDS011;26259;50.214;18.620;2023-01-15T09:06:26;5.63;;;3.60;;
22677;SDS011;26259;50.214;18.620;2023-01-15T09:08:51;10.30;;;4.63;;
22677;SDS011;26259;50.214;18.620;2023-01-15T09:11:17;8.53;;;4.63;;
22677;SDS011;26259;50.214;18.620;2023-01-15T09:13:42;8.80;;;4.93;;
22677;SDS011;26259;50.214;18.620;2023-01-15T09:16:10;6.87;;;4.10;;
22677;SDS011;26259;50.214;18.620;2023-01-15T09:18:36;10.23;;;5.10;;
22677;SDS011;26259;50.214;18.620;2023-01-15T09:21:03;11.80;;;5.10;;
22677;SDS011;26259;50.214;18.620;2023-01-15T09:23:30;8.47;;;4.87;;
22677;SDS011;26259;50.214;18.620;2023-01-15T09:25:57;13.67;;;4.87;;
22677;SDS011;26259;50.214;18.620;2023-01-15T09:28:24;10.40;;;4.93;;
22677;SDS011;26259;50.214;18.620;2023-01-15T09:30:50;7.50;;;4.33;;
22677;SDS011;26259;50.214;18.620;2023-01-15T09:33:16;9.87;;;4.63;;
22677;SDS011;26259;50.214;18.620;2023-01-15T09:35:42;9.80;;;5.30;;
22677;SDS011;26259;50.214;18.620;2023-01-15T09:38:11;11.57;;;5.67;;
22677;SDS011;26259;50.214;18.620;2023-01-15T09:40:54;9.77;;;4.30;;
22677;SDS011;26259;50.214;18.620;2023-01-15T09:45:57;6.97;;;3.87;;
22677;SDS011;26259;50.214;18.620;2023-01-15T09:54:29;6.63;;;3.63;;
22677;SDS011;26259;50.214;18.620;2023-01-15T09:56:38;7.20;;;3.47;;
22677;SDS011;26259;50.214;18.620;2023-01-15T09:59:19;6.17;;;3.43;;
22677;SDS011;26259;50.214;18.620;2023-01-15T10:01:53;8.80;;;3.67;;
22677;SDS011;26259;50.214;18.620;2023-01-15T10:09:42;6.70;;;3.80;;
22677;SDS011;26259;50.214;18.620;2023-01-15T10:12:15;9.73;;;4.23;;
22677;SDS011;26259;50.214;18.620;2023-01-15T10:17:42;7.23;;;3.90;;
22677;SDS011;26259;50.214;18.620;2023-01-15T10:23:08;6.27;;;3.80;;
22677;SDS011;26259;50.214;18.620;2023-01-15T10:26:00;5.13;;;3.33;;
22677;SDS011;26259;50.214;18.620;2023-01-15T10:28:42;5.33;;;3.53;;
22677;SDS011;26259;50.214;18.620;2023-01-15T10:31:42;4.67;;;3.07;;
22677;SDS011;26259;50.214;18.620;2023-01-15T10:42:51;6.53;;;3.90;;
22677;SDS011;26259;50.214;18.620;2023-01-15T10:45:37;7.20;;;3.70;;
22677;SDS011;26259;50.214;18.620;2023-01-15T10:51:03;9.03;;;4.50;;
22677;SDS011;26259;50.214;18.620;2023-01-15T10:53:52;7.53;;;4.00;;
22677;SDS011;26259;50.214;18.620;2023-01-15T10:59:31;10.13;;;6.03;;
22677;SDS011;26259;50.214;18.620;2023-01-15T11:01:58;7.87;;;4.57;;
22677;SDS011;26259;50.214;18.620;2023-01-15T11:04:26;9.10;;;4.80;;
22677;SDS011;26259;50.214;18.620;2023-01-15T11:06:55;8.33;;;4.20;;
22677;SDS011;26259;50.214;18.620;2023-01-15T11:09:22;10.00;;;4.50;;
22677;SDS011;26259;50.214;18.620;2023-01-15T11:11:57;6.30;;;3.80;;
22677;SDS011;26259;50.214;18.620;2023-01-15T11:14:37;11.83;;;4.50;;
22677;SDS011;26259;50.214;18.620;2023-01-15T11:17:43;6.50;;;4.10;;
22677;SDS011;26259;50.214;18.620;2023-01-15T11:20:32;8.67;;;4.10;;
22677;SDS011;26259;50.214;18.620;2023-01-15T11:23:17;9.50;;;4.63;;
22677;SDS011;26259;50.214;18.620;2023-01-15T11:25:56;9.87;;;5.23;;
22677;SDS011;26259;50.214;18.620;2023-01-15T11:28:31;11.70;;;5.53;;
22677;SDS011;26259;50.214;18.620;2023-01-15T11:31:04;11.33;;;5.33;;
22677;SDS011;26259;50.214;18.620;2023-01-15T11:33:31;9.07;;;5.30;;
22677;SDS011;26259;50.214;18.620;2023-01-15T11:35:58;9.53;;;5.60;;
22677;SDS011;26259;50.214;18.620;2023-01-15T11:38:27;14.50;;;5.63;;
22677;SDS011;26259;50.214;18.620;2023-01-15T11:40:58;11.37;;;6.00;;
22677;SDS011;26259;50.214;18.620;2023-01-15T11:43:28;12.63;;;7.20;;
22677;SDS011;26259;50.214;18.620;2023-01-15T11:46:24;13.83;;;7.83;;
22677;SDS011;26259;50.214;18.620;2023-01-15T11:49:16;13.37;;;7.87;;
22677;SDS011;26259;50.214;18.620;2023-01-15T11:52:03;15.23;;;7.33;;
22677;SDS011;26259;50.214;18.620;2023-01-15T11:54:36;14.07;;;6.97;;
22677;SDS011;26259;50.214;18.620;2023-01-15T11:57:05;14.13;;;7.40;;
22677;SDS011;26259;50.214;18.620;2023-01-15T11:59:30;15.07;;;8.33;;
22677;SDS011;26259;50.214;18.620;2023-01-15T12:02:05;16.77;;;11.80;;
22677;SDS011;26259;50.214;18.620;2023-01-15T12:04:37;16.67;;;8.60;;
22677;SDS011;26259;50.214;18.620;2023-01-15T12:07:13;14.67;;;8.00;;
22677;SDS011;26259;50.214;18.620;2023-01-15T12:09:48;15.67;;;7.87;;
22677;SDS011;26259;50.214;18.620;2023-01-15T12:21:18;7.33;;;4.37;;
22677;SDS011;26259;50.214;18.620;2023-01-15T12:29:23;6.90;;;3.80;;
22677;SDS011;26259;50.214;18.620;2023-01-15T12:32:10;7.50;;;4.67;;
22677;SDS011;26259;50.214;18.620;2023-01-15T12:34:52;8.97;;;4.33;;
22677;SDS011;26259;50.214;18.620;2023-01-15T12:37:23;10.97;;;5.47;;
22677;SDS011;26259;50.214;18.620;2023-01-15T12:39:58;11.57;;;5.83;;
22677;SDS011;26259;50.214;18.620;2023-01-15T12:42:38;15.77;;;6.00;;
22677;SDS011;26259;50.214;18.620;2023-01-15T12:45:30;11.63;;;5.77;;
22677;SDS011;26259;50.214;18.620;2023-01-15T12:51:17;168.23;;;98.20;;
22677;SDS011;26259;50.214;18.620;2023-01-15T12:53:59;29.50;;;13.20;;
22677;SDS011;26259;50.214;18.620;2023-01-15T12:56:52;24.87;;;15.93;;
22677;SDS011;26259;50.214;18.620;2023-01-15T12:59:27;24.70;;;11.80;;
22677;SDS011;26259;50.214;18.620;2023-01-15T13:02:02;22.87;;;12.57;;
22677;SDS011;26259;50.214;18.620;2023-01-15T13:04:56;36.23;;;16.87;;
22677;SDS011;26259;50.214;18.620;2023-01-15T13:07:55;27.03;;;13.10;;
22677;SDS011;26259;50.214;18.620;2023-01-15T13:10:30;53.30;;;26.63;;
22677;SDS011;26259;50.214;18.620;2023-01-15T13:13:12;102.87;;;52.07;;
22677;SDS011;26259;50.214;18.620;2023-01-15T13:18:39;87.83;;;46.57;;
22677;SDS011;26259;50.214;18.620;2023-01-15T13:21:12;64.73;;;34.73;;
22677;SDS011;26259;50.214;18.620;2023-01-15T13:23:43;40.83;;;21.07;;
22677;SDS011;26259;50.214;18.620;2023-01-15T13:32:25;25.43;;;12.20;;
22677;SDS011;26259;50.214;18.620;2023-01-15T13:37:44;38.10;;;20.47;;
22677;SDS011;26259;50.214;18.620;2023-01-15T13:40:47;46.83;;;27.53;;
22677;SDS011;26259;50.214;18.620;2023-01-15T13:43:08;21.17;;;11.93;;
22677;SDS011;26259;50.214;18.620;2023-01-15T13:45:53;37.50;;;21.93;;
22677;SDS011;26259;50.214;18.620;2023-01-15T13:48:43;58.90;;;33.60;;
22677;SDS011;26259;50.214;18.620;2023-01-15T13:51:28;53.57;;;32.57;;
22677;SDS011;26259;50.214;18.620;2023-01-15T13:54:01;57.40;;;36.27;;
22677;SDS011;26259;50.214;18.620;2023-01-15T13:56:31;40.23;;;25.97;;
22677;SDS011;26259;50.214;18.620;2023-01-15T13:59:05;24.47;;;13.90;;
22677;SDS011;26259;50.214;18.620;2023-01-15T14:01:51;20.43;;;11.37;;
22677;SDS011;26259;50.214;18.620;2023-01-15T14:04:16;21.77;;;12.63;;
22677;SDS011;26259;50.214;18.620;2023-01-15T14:06:56;20.23;;;11.20;;
22677;SDS011;26259;50.214;18.620;2023-01-15T14:17:09;22.63;;;11.23;;
22677;SDS011;26259;50.214;18.620;2023-01-15T14:31:27;29.70;;;14.83;;
22677;SDS011;26259;50.214;18.620;2023-01-15T14:34:24;22.13;;;12.57;;
22677;SDS011;26259;50.214;18.620;2023-01-15T14:47:50;29.50;;;16.10;;
22677;SDS011;26259;50.214;18.620;2023-01-15T14:50:25;27.17;;;15.83;;
22677;SDS011;26259;50.214;18.620;2023-01-15T14:52:52;33.23;;;18.33;;
22677;SDS011;26259;50.214;18.620;2023-01-15T14:55:20;21.77;;;11.47;;
22677;SDS011;26259;50.214;18.620;2023-01-15T14:58:05;26.37;;;14.57;;
22677;SDS011;26259;50.214;18.620;2023-01-15T15:00:41;22.57;;;13.20;;
22677;SDS011;26259;50.214;18.620;2023-01-15T15:03:15;18.23;;;10.60;;
22677;SDS011;26259;50.214;18.620;2023-01-15T15:05:44;20.93;;;11.33;;
22677;SDS011;26259;50.214;18.620;2023-01-15T15:08:11;17.47;;;9.90;;
22677;SDS011;26259;50.214;18.620;2023-01-15T15:10:39;20.87;;;11.30;;
22677;SDS011;26259;50.214;18.620;2023-01-15T15:18:44;25.37;;;13.57;;
22677;SDS011;26259;50.214;18.620;2023-01-15T15:21:29;38.33;;;16.60;;
22677;SDS011;26259;50.214;18.620;2023-01-15T15:26:38;28.83;;;16.90;;
22677;SDS011;26259;50.214;18.620;2023-01-15T15:29:05;30.80;;;18.50;;
22677;SDS011;26259;50.214;18.620;2023-01-15T15:34:09;26.73;;;15.50;;
22677;SDS011;26259;50.214;18.620;2023-01-15T15:36:53;29.63;;;13.40;;
22677;SDS011;26259;50.214;18.620;2023-01-15T15:39:24;25.90;;;11.00;;
22677;SDS011;26259;50.214;18.620;2023-01-15T15:41:51;19.20;;;8.97;;
22677;SDS011;26259;50.214;18.620;2023-01-15T15:44:41;18.77;;;11.60;;
22677;SDS011;26259;50.214;18.620;2023-01-15T15:47:34;20.27;;;12.27;;
22677;SDS011;26259;50.214;18.620;2023-01-15T15:50:25;17.57;;;10.80;;
22677;SDS011;26259;50.214;18.620;2023-01-15T15:52:53;17.97;;;11.10;;
22677;SDS011;26259;50.214;18.620;2023-01-15T15:55:20;25.63;;;12.13;;
22677;SDS011;26259;50.214;18.620;2023-01-15T15:57:47;21.30;;;12.20;;
22677;SDS011;26259;50.214;18.620;2023-01-15T16:00:18;14.67;;;8.70;;
22677;SDS011;26259;50.214;18.620;2023-01-15T16:02:52;22.60;;;14.30;;
22677;SDS011;26259;50.214;18.620;2023-01-15T16:07:46;18.30;;;10.90;;
22677;SDS011;26259;50.214;18.620;2023-01-15T16:10:13;19.63;;;10.70;;
22677;SDS011;26259;50.214;18.620;2023-01-15T16:12:48;20.60;;;10.07;;
22677;SDS011;26259;50.214;18.620;2023-01-15T16:15:20;11.00;;;6.93;;
22677;SDS011;26259;50.214;18.620;2023-01-15T16:17:53;13.90;;;8.57;;
22677;SDS011;26259;50.214;18.620;2023-01-15T16:20:20;12.13;;;7.27;;
22677;SDS011;26259;50.214;18.620;2023-01-15T16:22:53;13.13;;;7.63;;
22677;SDS011;26259;50.214;18.620;2023-01-15T16:25:38;18.03;;;9.30;;
22677;SDS011;26259;50.214;18.620;2023-01-15T16:28:05;14.87;;;8.40;;
22677;SDS011;26259;50.214;18.620;2023-01-15T16:30:53;15.27;;;9.10;;
22677;SDS011;26259;50.214;18.620;2023-01-15T16:33:22;17.00;;;8.80;;
22677;SDS011;26259;50.214;18.620;2023-01-15T16:35:54;20.57;;;10.13;;
22677;SDS011;26259;50.214;18.620;2023-01-15T16:38:23;15.07;;;8.37;;
22677;SDS011;26259;50.214;18.620;2023-01-15T16:40:50;19.33;;;10.10;;
22677;SDS011;26259;50.214;18.620;2023-01-15T16:43:18;15.43;;;10.10;;
22677;SDS011;26259;50.214;18.620;2023-01-15T16:46:06;20.83;;;10.73;;
22677;SDS011;26259;50.214;18.620;2023-01-15T16:48:40;21.50;;;11.87;;
22677;SDS011;26259;50.214;18.620;2023-01-15T16:53:59;13.43;;;8.10;;
22677;SDS011;26259;50.214;18.620;2023-01-15T17:01:51;15.83;;;9.80;;
22677;SDS011;26259;50.214;18.620;2023-01-15T17:06:59;18.50;;;11.47;;
22677;SDS011;26259;50.214;18.620;2023-01-15T17:09:28;17.30;;;12.97;;
22677;SDS011;26259;50.214;18.620;2023-01-15T17:12:02;16.53;;;9.97;;
22677;SDS011;26259;50.214;18.620;2023-01-15T17:14:49;15.57;;;10.40;;